Terminal Aerodrome Forecast
Issued by NWS Twin Cities, MN

Home | Current Version | Previous Version | Graphics & Text | Print | Product List | Glossary On
Versions: 1 2 3 4 5 6 7 8 9 10 11 12 13 14 15
000
FTUS43 KMPX 240902 AAA
TAFEAU
TAF AMD
KEAU 240902Z 2409/2506 23004KT 6SM BR BKN012
     FM241400 26006KT P6SM BKN025 BKN150
     FM250300 04005KT 2SM -SN OVC012
      TEMPO 2503/2506 1SM -SN VV006=

USA.gov is the U.S. government's official web portal to all federal, state and local government web resources and services.